sensor_id;sensor_type;location;lat;lon;timestamp;temperature;humidity
44170;DHT22;29836;52.286;9.576;2022-11-15T00:01:51;6.30;99.90
44170;DHT22;29836;52.286;9.576;2022-11-15T00:04:16;6.60;99.90
44170;DHT22;29836;52.286;9.576;2022-11-15T00:06:42;6.70;99.90
44170;DHT22;29836;52.286;9.576;2022-11-15T00:09:07;6.60;99.90
44170;DHT22;29836;52.286;9.576;2022-11-15T00:11:33;6.70;99.90
44170;DHT22;29836;52.286;9.576;2022-11-15T00:13:59;6.90;99.90
44170;DHT22;29836;52.286;9.576;2022-11-15T00:16:27;6.80;99.90
44170;DHT22;29836;52.286;9.576;2022-11-15T00:18:53;6.70;99.90
44170;DHT22;29836;52.286;9.576;2022-11-15T00:21:18;6.90;99.90
44170;DHT22;29836;52.286;9.576;2022-11-15T00:23:44;6.90;99.90
44170;DHT22;29836;52.286;9.576;2022-11-15T00:26:12;7.00;99.90
44170;DHT22;29836;52.286;9.576;2022-11-15T00:28:38;7.10;99.90
44170;DHT22;29836;52.286;9.576;2022-11-15T00:31:06;7.10;99.90
44170;DHT22;29836;52.286;9.576;2022-11-15T00:33:32;7.20;99.90
44170;DHT22;29836;52.286;9.576;2022-11-15T00:36:03;7.30;99.90
44170;DHT22;29836;52.286;9.576;2022-11-15T00:38:33;7.50;99.90
44170;DHT22;29836;52.286;9.576;2022-11-15T00:41:00;7.80;99.90
44170;DHT22;29836;52.286;9.576;2022-11-15T00:43:26;7.90;99.90
44170;DHT22;29836;52.286;9.576;2022-11-15T00:45:52;7.90;99.90
44170;DHT22;29836;52.286;9.576;2022-11-15T00:48:17;7.90;99.90
44170;DHT22;29836;52.286;9.576;2022-11-15T00:50:43;7.90;99.90
44170;DHT22;29836;52.286;9.576;2022-11-15T00:53:09;8.00;99.90
44170;DHT22;29836;52.286;9.576;2022-11-15T00:55:35;8.00;99.90
44170;DHT22;29836;52.286;9.576;2022-11-15T00:58:00;8.10;99.90
44170;DHT22;29836;52.286;9.576;2022-11-15T01:00:26;8.20;99.90
44170;DHT22;29836;52.286;9.576;2022-11-15T01:02:52;8.30;99.90
44170;DHT22;29836;52.286;9.576;2022-11-15T01:05:17;8.40;99.90
44170;DHT22;29836;52.286;9.576;2022-11-15T01:07:43;8.40;99.90
44170;DHT22;29836;52.286;9.576;2022-11-15T01:10:09;8.40;99.90
44170;DHT22;29836;52.286;9.576;2022-11-15T01:12:34;8.40;99.90
44170;DHT22;29836;52.286;9.576;2022-11-15T01:15:00;8.40;99.90
44170;DHT22;29836;52.286;9.576;2022-11-15T01:17:26;8.60;99.90
44170;DHT22;29836;52.286;9.576;2022-11-15T01:19:51;8.60;99.90
44170;DHT22;29836;52.286;9.576;2022-11-15T01:22:17;8.70;99.90
44170;DHT22;29836;52.286;9.576;2022-11-15T01:24:42;8.80;99.90
44170;DHT22;29836;52.286;9.576;2022-11-15T01:27:08;8.90;99.90
44170;DHT22;29836;52.286;9.576;2022-11-15T01:29:34;8.80;99.90
44170;DHT22;29836;52.286;9.576;2022-11-15T01:31:59;8.90;99.90
44170;DHT22;29836;52.286;9.576;2022-11-15T01:34:25;8.90;99.90
44170;DHT22;29836;52.286;9.576;2022-11-15T01:36:51;8.90;99.90
44170;DHT22;29836;52.286;9.576;2022-11-15T01:39:16;8.90;99.90
44170;DHT22;29836;52.286;9.576;2022-11-15T01:41:42;9.00;99.90
44170;DHT22;29836;52.286;9.576;2022-11-15T01:47:17;9.00;99.90
44170;DHT22;29836;52.286;9.576;2022-11-15T01:50:00;8.90;99.90
44170;DHT22;29836;52.286;9.576;2022-11-15T01:52:28;8.80;99.90
44170;DHT22;29836;52.286;9.576;2022-11-15T01:55:03;8.80;99.90
44170;DHT22;29836;52.286;9.576;2022-11-15T01:57:30;8.80;99.90
44170;DHT22;29836;52.286;9.576;2022-11-15T01:59:56;8.70;99.90
44170;DHT22;29836;52.286;9.576;2022-11-15T02:02:22;9.00;99.90
44170;DHT22;29836;52.286;9.576;2022-11-15T02:04:48;9.00;99.90
44170;DHT22;29836;52.286;9.576;2022-11-15T02:07:17;9.00;99.90
44170;DHT22;29836;52.286;9.576;2022-11-15T02:09:44;9.10;99.90
44170;DHT22;29836;52.286;9.576;2022-11-15T02:12:11;9.00;99.90
44170;DHT22;29836;52.286;9.576;2022-11-15T02:14:40;8.90;99.90
44170;DHT22;29836;52.286;9.576;2022-11-15T02:31:06;9.10;99.90
44170;DHT22;29836;52.286;9.576;2022-11-15T02:39:17;9.20;99.90
44170;DHT22;29836;52.286;9.576;2022-11-15T02:41:54;9.10;99.90
44170;DHT22;29836;52.286;9.576;2022-11-15T02:46:59;8.90;99.90
44170;DHT22;29836;52.286;9.576;2022-11-15T02:49:43;8.90;99.90
44170;DHT22;29836;52.286;9.576;2022-11-15T02:52:18;9.10;99.90
44170;DHT22;29836;52.286;9.576;2022-11-15T02:54:57;9.30;99.90
44170;DHT22;29836;52.286;9.576;2022-11-15T03:00:13;9.80;99.90
44170;DHT22;29836;52.286;9.576;2022-11-15T03:08:08;10.20;99.90
44170;DHT22;29836;52.286;9.576;2022-11-15T03:11:03;10.40;99.90
44170;DHT22;29836;52.286;9.576;2022-11-15T03:14:02;10.60;99.90
44170;DHT22;29836;52.286;9.576;2022-11-15T03:16:44;10.70;99.90
44170;DHT22;29836;52.286;9.576;2022-11-15T03:22:01;10.80;99.90
44170;DHT22;29836;52.286;9.576;2022-11-15T03:24:29;10.90;99.90
44170;DHT22;29836;52.286;9.576;2022-11-15T03:26:59;10.90;99.90
44170;DHT22;29836;52.286;9.576;2022-11-15T03:29:32;11.00;99.90
44170;DHT22;29836;52.286;9.576;2022-11-15T03:32:06;11.00;99.90
44170;DHT22;29836;52.286;9.576;2022-11-15T03:37:08;11.20;99.90
44170;DHT22;29836;52.286;9.576;2022-11-15T03:39:35;11.20;99.90
44170;DHT22;29836;52.286;9.576;2022-11-15T03:42:27;11.20;99.90
44170;DHT22;29836;52.286;9.576;2022-11-15T03:45:18;11.30;99.90
44170;DHT22;29836;52.286;9.576;2022-11-15T03:50:24;11.40;99.90
44170;DHT22;29836;52.286;9.576;2022-11-15T03:52:50;11.30;99.90
44170;DHT22;29836;52.286;9.576;2022-11-15T03:55:19;11.30;99.90
44170;DHT22;29836;52.286;9.576;2022-11-15T03:57:46;11.30;99.90
44170;DHT22;29836;52.286;9.576;2022-11-15T04:00:13;11.40;99.90
44170;DHT22;29836;52.286;9.576;2022-11-15T04:02:38;11.50;99.90
44170;DHT22;29836;52.286;9.576;2022-11-15T04:05:04;11.50;99.90
44170;DHT22;29836;52.286;9.576;2022-11-15T04:07:30;11.50;99.90
44170;DHT22;29836;52.286;9.576;2022-11-15T04:09:55;11.50;99.90
44170;DHT22;29836;52.286;9.576;2022-11-15T04:12:39;11.30;99.90
44170;DHT22;29836;52.286;9.576;2022-11-15T04:15:14;11.10;99.90
44170;DHT22;29836;52.286;9.576;2022-11-15T04:22:57;10.60;99.90
44170;DHT22;29836;52.286;9.576;2022-11-15T04:25:42;10.40;99.90
44170;DHT22;29836;52.286;9.576;2022-11-15T04:28:08;10.30;99.90
44170;DHT22;29836;52.286;9.576;2022-11-15T04:30:34;10.20;99.90
44170;DHT22;29836;52.286;9.576;2022-11-15T04:32:59;10.10;99.90
44170;DHT22;29836;52.286;9.576;2022-11-15T04:35:25;9.90;99.90
44170;DHT22;29836;52.286;9.576;2022-11-15T04:37:51;9.90;99.90
44170;DHT22;29836;52.286;9.576;2022-11-15T04:40:16;9.80;99.90
44170;DHT22;29836;52.286;9.576;2022-11-15T04:42:42;9.70;99.90
44170;DHT22;29836;52.286;9.576;2022-11-15T04:45:08;9.70;99.90
44170;DHT22;29836;52.286;9.576;2022-11-15T04:47:34;9.60;99.90
44170;DHT22;29836;52.286;9.576;2022-11-15T04:50:00;9.70;99.90
44170;DHT22;29836;52.286;9.576;2022-11-15T04:52:25;9.80;99.90
44170;DHT22;29836;52.286;9.576;2022-11-15T04:54:51;9.80;99.90
44170;DHT22;29836;52.286;9.576;2022-11-15T04:57:17;9.80;99.90
44170;DHT22;29836;52.286;9.576;2022-11-15T04:59:43;9.70;99.90
44170;DHT22;29836;52.286;9.576;2022-11-15T05:02:08;9.60;99.90
44170;DHT22;29836;52.286;9.576;2022-11-15T05:04:34;9.60;99.90
44170;DHT22;29836;52.286;9.576;2022-11-15T05:06:59;9.50;99.90
44170;DHT22;29836;52.286;9.576;2022-11-15T05:09:25;9.50;99.90
44170;DHT22;29836;52.286;9.576;2022-11-15T05:11:51;9.50;99.90
44170;DHT22;29836;52.286;9.576;2022-11-15T05:14:16;9.50;99.90
44170;DHT22;29836;52.286;9.576;2022-11-15T05:16:42;9.70;99.90
44170;DHT22;29836;52.286;9.576;2022-11-15T05:19:08;9.90;99.90
44170;DHT22;29836;52.286;9.576;2022-11-15T05:21:34;9.90;99.90
44170;DHT22;29836;52.286;9.576;2022-11-15T05:24:00;9.90;99.90
44170;DHT22;29836;52.286;9.576;2022-11-15T05:26:26;10.00;99.90
44170;DHT22;29836;52.286;9.576;2022-11-15T05:28:53;10.10;99.90
44170;DHT22;29836;52.286;9.576;2022-11-15T05:31:19;10.10;99.90
44170;DHT22;29836;52.286;9.576;2022-11-15T05:33:45;10.10;99.90
44170;DHT22;29836;52.286;9.576;2022-11-15T05:36:35;10.20;99.90
44170;DHT22;29836;52.286;9.576;2022-11-15T05:39:04;10.20;99.90
44170;DHT22;29836;52.286;9.576;2022-11-15T05:41:46;10.30;99.90
44170;DHT22;29836;52.286;9.576;2022-11-15T05:44:16;10.30;99.90
44170;DHT22;29836;52.286;9.576;2022-11-15T05:46:43;10.40;99.90
44170;DHT22;29836;52.286;9.576;2022-11-15T05:49:11;10.30;99.90
44170;DHT22;29836;52.286;9.576;2022-11-15T05:51:39;10.30;99.90
44170;DHT22;29836;52.286;9.576;2022-11-15T05:54:05;10.30;99.90
44170;DHT22;29836;52.286;9.576;2022-11-15T05:56:31;10.20;99.90
44170;DHT22;29836;52.286;9.576;2022-11-15T05:58:58;10.10;99.90
44170;DHT22;29836;52.286;9.576;2022-11-15T06:01:25;10.00;99.90
44170;DHT22;29836;52.286;9.576;2022-11-15T06:03:51;9.90;99.90
44170;DHT22;29836;52.286;9.576;2022-11-15T06:06:17;9.90;99.90
44170;DHT22;29836;52.286;9.576;2022-11-15T06:08:42;10.00;99.90
44170;DHT22;29836;52.286;9.576;2022-11-15T06:11:08;10.00;99.90
44170;DHT22;29836;52.286;9.576;2022-11-15T06:13:34;9.90;99.90
44170;DHT22;29836;52.286;9.576;2022-11-15T06:16:00;9.90;99.90
44170;DHT22;29836;52.286;9.576;2022-11-15T06:18:26;9.80;99.90
44170;DHT22;29836;52.286;9.576;2022-11-15T06:20:51;10.00;99.90
44170;DHT22;29836;52.286;9.576;2022-11-15T06:23:17;10.00;99.90
44170;DHT22;29836;52.286;9.576;2022-11-15T06:25:43;10.00;99.90
44170;DHT22;29836;52.286;9.576;2022-11-15T06:28:08;10.00;99.90
44170;DHT22;29836;52.286;9.576;2022-11-15T06:30:34;10.00;99.90
44170;DHT22;29836;52.286;9.576;2022-11-15T06:33:01;10.20;99.90
44170;DHT22;29836;52.286;9.576;2022-11-15T06:35:27;10.20;99.90
44170;DHT22;29836;52.286;9.576;2022-11-15T06:37:53;10.10;99.90
44170;DHT22;29836;52.286;9.576;2022-11-15T06:40:18;10.20;99.90
44170;DHT22;29836;52.286;9.576;2022-11-15T06:42:44;10.20;99.90
44170;DHT22;29836;52.286;9.576;2022-11-15T06:45:10;10.10;99.90
44170;DHT22;29836;52.286;9.576;2022-11-15T06:47:35;10.20;99.90
44170;DHT22;29836;52.286;9.576;2022-11-15T06:50:01;10.30;99.90
44170;DHT22;29836;52.286;9.576;2022-11-15T06:52:26;10.40;99.90
44170;DHT22;29836;52.286;9.576;2022-11-15T06:54:57;10.40;99.90
44170;DHT22;29836;52.286;9.576;2022-11-15T06:57:24;10.50;99.90
44170;DHT22;29836;52.286;9.576;2022-11-15T06:59:49;10.50;99.90
44170;DHT22;29836;52.286;9.576;2022-11-15T07:02:15;10.50;99.90
44170;DHT22;29836;52.286;9.576;2022-11-15T07:04:40;10.50;99.90
44170;DHT22;29836;52.286;9.576;2022-11-15T07:07:06;10.40;99.90
44170;DHT22;29836;52.286;9.576;2022-11-15T07:09:32;10.30;99.90
44170;DHT22;29836;52.286;9.576;2022-11-15T07:11:57;10.10;99.90
44170;DHT22;29836;52.286;9.576;2022-11-15T07:14:23;9.80;99.90
44170;DHT22;29836;52.286;9.576;2022-11-15T07:16:48;9.50;99.90
44170;DHT22;29836;52.286;9.576;2022-11-15T07:19:14;9.40;99.90
44170;DHT22;29836;52.286;9.576;2022-11-15T07:21:39;9.50;99.90
44170;DHT22;29836;52.286;9.576;2022-11-15T07:24:05;9.50;99.90
44170;DHT22;29836;52.286;9.576;2022-11-15T07:26:31;9.50;99.90
44170;DHT22;29836;52.286;9.576;2022-11-15T07:28:56;9.60;99.90
44170;DHT22;29836;52.286;9.576;2022-11-15T07:31:22;9.70;99.90
44170;DHT22;29836;52.286;9.576;2022-11-15T07:33:47;9.80;99.90
44170;DHT22;29836;52.286;9.576;2022-11-15T07:36:13;9.90;99.90
44170;DHT22;29836;52.286;9.576;2022-11-15T07:38:38;9.90;99.90
44170;DHT22;29836;52.286;9.576;2022-11-15T07:41:05;9.80;99.90
44170;DHT22;29836;52.286;9.576;2022-11-15T07:43:31;9.80;99.90
44170;DHT22;29836;52.286;9.576;2022-11-15T07:45:59;9.80;99.90
44170;DHT22;29836;52.286;9.576;2022-11-15T07:48:29;9.80;99.90
44170;DHT22;29836;52.286;9.576;2022-11-15T07:50:55;9.80;99.90
44170;DHT22;29836;52.286;9.576;2022-11-15T07:53:20;9.80;99.90
44170;DHT22;29836;52.286;9.576;2022-11-15T07:55:46;10.00;99.90
44170;DHT22;29836;52.286;9.576;2022-11-15T07:58:11;10.50;99.90
44170;DHT22;29836;52.286;9.576;2022-11-15T08:00:38;11.30;99.90
44170;DHT22;29836;52.286;9.576;2022-11-15T08:03:05;12.50;99.90
44170;DHT22;29836;52.286;9.576;2022-11-15T08:05:31;14.00;99.90
44170;DHT22;29836;52.286;9.576;2022-11-15T08:07:57;15.20;99.90
44170;DHT22;29836;52.286;9.576;2022-11-15T08:10:23;16.00;99.90
44170;DHT22;29836;52.286;9.576;2022-11-15T08:12:55;16.60;99.90
44170;DHT22;29836;52.286;9.576;2022-11-15T08:15:21;16.60;99.90
44170;DHT22;29836;52.286;9.576;2022-11-15T08:17:46;16.30;99.90
44170;DHT22;29836;52.286;9.576;2022-11-15T08:20:12;16.60;99.90
44170;DHT22;29836;52.286;9.576;2022-11-15T08:22:37;17.10;99.90
44170;DHT22;29836;52.286;9.576;2022-11-15T08:25:03;17.60;99.90
44170;DHT22;29836;52.286;9.576;2022-11-15T08:27:29;17.50;99.90
44170;DHT22;29836;52.286;9.576;2022-11-15T08:29:54;17.30;99.90
44170;DHT22;29836;52.286;9.576;2022-11-15T08:32:21;17.30;99.90
44170;DHT22;29836;52.286;9.576;2022-11-15T08:34:47;17.40;99.90
44170;DHT22;29836;52.286;9.576;2022-11-15T08:37:12;17.90;99.00
44170;DHT22;29836;52.286;9.576;2022-11-15T08:39:38;18.10;98.90
44170;DHT22;29836;52.286;9.576;2022-11-15T08:42:04;18.00;98.10
44170;DHT22;29836;52.286;9.576;2022-11-15T08:44:29;18.10;98.40
44170;DHT22;29836;52.286;9.576;2022-11-15T08:46:55;18.30;97.80
44170;DHT22;29836;52.286;9.576;2022-11-15T08:49:20;18.90;97.00
44170;DHT22;29836;52.286;9.576;2022-11-15T08:51:46;19.90;94.90
44170;DHT22;29836;52.286;9.576;2022-11-15T08:54:11;20.50;92.80
44170;DHT22;29836;52.286;9.576;2022-11-15T08:56:37;21.30;91.20
44170;DHT22;29836;52.286;9.576;2022-11-15T08:59:02;22.00;89.10
44170;DHT22;29836;52.286;9.576;2022-11-15T09:01:28;23.00;83.60
44170;DHT22;29836;52.286;9.576;2022-11-15T09:03:53;23.80;77.90
44170;DHT22;29836;52.286;9.576;2022-11-15T09:06:20;24.30;74.50
44170;DHT22;29836;52.286;9.576;2022-11-15T09:08:45;24.30;73.20
44170;DHT22;29836;52.286;9.576;2022-11-15T09:11:11;24.00;73.60
44170;DHT22;29836;52.286;9.576;2022-11-15T09:13:37;24.20;72.30
44170;DHT22;29836;52.286;9.576;2022-11-15T09:16:04;24.50;71.60
44170;DHT22;29836;52.286;9.576;2022-11-15T09:18:29;24.50;71.30
44170;DHT22;29836;52.286;9.576;2022-11-15T09:20:59;24.40;71.10
44170;DHT22;29836;52.286;9.576;2022-11-15T09:23:25;24.20;71.30
44170;DHT22;29836;52.286;9.576;2022-11-15T09:25:52;24.30;71.50
44170;DHT22;29836;52.286;9.576;2022-11-15T09:28:17;24.30;70.50
44170;DHT22;29836;52.286;9.576;2022-11-15T09:30:43;24.20;71.10
44170;DHT22;29836;52.286;9.576;2022-11-15T09:33:10;24.30;70.60
44170;DHT22;29836;52.286;9.576;2022-11-15T09:35:36;24.40;69.10
44170;DHT22;29836;52.286;9.576;2022-11-15T09:38:02;24.50;69.80
44170;DHT22;29836;52.286;9.576;2022-11-15T09:40:30;24.20;69.60
44170;DHT22;29836;52.286;9.576;2022-11-15T09:43:31;23.20;71.80
44170;DHT22;29836;52.286;9.576;2022-11-15T09:49:09;23.60;71.50
44170;DHT22;29836;52.286;9.576;2022-11-15T09:51:39;24.50;68.40
44170;DHT22;29836;52.286;9.576;2022-11-15T09:54:29;24.00;68.80
44170;DHT22;29836;52.286;9.576;2022-11-15T09:57:13;24.00;69.30
44170;DHT22;29836;52.286;9.576;2022-11-15T10:04:51;25.20;66.50
44170;DHT22;29836;52.286;9.576;2022-11-15T10:12:53;24.60;69.20
44170;DHT22;29836;52.286;9.576;2022-11-15T10:15:19;25.90;63.90
44170;DHT22;29836;52.286;9.576;2022-11-15T10:20:48;25.80;64.00
44170;DHT22;29836;52.286;9.576;2022-11-15T10:23:17;26.00;62.50
44170;DHT22;29836;52.286;9.576;2022-11-15T10:25:43;25.30;63.40
44170;DHT22;29836;52.286;9.576;2022-11-15T10:28:27;25.50;63.30
44170;DHT22;29836;52.286;9.576;2022-11-15T10:30:54;26.00;61.80
44170;DHT22;29836;52.286;9.576;2022-11-15T10:41:21;21.30;72.90
44170;DHT22;29836;52.286;9.576;2022-11-15T10:47:03;18.80;81.10
44170;DHT22;29836;52.286;9.576;2022-11-15T10:49:33;17.90;85.80
44170;DHT22;29836;52.286;9.576;2022-11-15T10:54:50;16.70;92.30
44170;DHT22;29836;52.286;9.576;2022-11-15T10:57:27;16.40;94.20
44170;DHT22;29836;52.286;9.576;2022-11-15T11:00:40;16.10;95.70
44170;DHT22;29836;52.286;9.576;2022-11-15T11:05:32;15.70;98.10
44170;DHT22;29836;52.286;9.576;2022-11-15T11:08:02;15.80;98.60
44170;DHT22;29836;52.286;9.576;2022-11-15T11:10:29;15.50;99.00
44170;DHT22;29836;52.286;9.576;2022-11-15T11:12:55;15.30;99.90
44170;DHT22;29836;52.286;9.576;2022-11-15T11:15:23;15.20;99.90
44170;DHT22;29836;52.286;9.576;2022-11-15T11:18:01;15.10;99.90
44170;DHT22;29836;52.286;9.576;2022-11-15T11:20:46;15.00;99.90
44170;DHT22;29836;52.286;9.576;2022-11-15T11:23:19;14.90;99.90
44170;DHT22;29836;52.286;9.576;2022-11-15T11:33:24;14.60;99.90
44170;DHT22;29836;52.286;9.576;2022-11-15T11:41:20;14.80;99.90
44170;DHT22;29836;52.286;9.576;2022-11-15T11:44:39;14.90;99.90
44170;DHT22;29836;52.286;9.576;2022-11-15T11:47:01;14.90;99.90
44170;DHT22;29836;52.286;9.576;2022-11-15T11:49:51;14.90;99.90
44170;DHT22;29836;52.286;9.576;2022-11-15T11:52:38;14.80;99.90
44170;DHT22;29836;52.286;9.576;2022-11-15T12:01:02;14.70;99.90
44170;DHT22;29836;52.286;9.576;2022-11-15T12:03:38;14.70;99.90
44170;DHT22;29836;52.286;9.576;2022-11-15T12:06:32;14.70;99.90
44170;DHT22;29836;52.286;9.576;2022-11-15T12:11:37;14.70;99.90
44170;DHT22;29836;52.286;9.576;2022-11-15T12:14:23;14.60;99.90
44170;DHT22;29836;52.286;9.576;2022-11-15T12:16:50;14.50;99.90
44170;DHT22;29836;52.286;9.576;2022-11-15T12:19:15;14.50;99.90
44170;DHT22;29836;52.286;9.576;2022-11-15T12:21:54;14.40;99.90
44170;DHT22;29836;52.286;9.576;2022-11-15T12:24:29;14.30;99.90
44170;DHT22;29836;52.286;9.576;2022-11-15T12:27:20;14.40;99.90
44170;DHT22;29836;52.286;9.576;2022-11-15T12:29:53;14.40;99.90
44170;DHT22;29836;52.286;9.576;2022-11-15T12:32:29;14.40;99.90
44170;DHT22;29836;52.286;9.576;2022-11-15T12:34:56;14.30;99.90
44170;DHT22;29836;52.286;9.576;2022-11-15T12:45:32;14.30;99.90
44170;DHT22;29836;52.286;9.576;2022-11-15T12:59:09;14.20;99.90
44170;DHT22;29836;52.286;9.576;2022-11-15T13:06:48;14.20;99.90
44170;DHT22;29836;52.286;9.576;2022-11-15T13:20:32;14.00;99.90
44170;DHT22;29836;52.286;9.576;2022-11-15T13:23:07;13.90;99.90
44170;DHT22;29836;52.286;9.576;2022-11-15T13:28:20;13.70;99.90
44170;DHT22;29836;52.286;9.576;2022-11-15T13:30:58;13.70;99.90
44170;DHT22;29836;52.286;9.576;2022-11-15T13:33:34;13.70;99.90
44170;DHT22;29836;52.286;9.576;2022-11-15T13:38:35;13.50;99.90
44170;DHT22;29836;52.286;9.576;2022-11-15T13:41:18;13.50;99.90
44170;DHT22;29836;52.286;9.576;2022-11-15T13:43:46;13.50;99.90
44170;DHT22;29836;52.286;9.576;2022-11-15T13:49:02;13.40;99.90
44170;DHT22;29836;52.286;9.576;2022-11-15T13:51:51;13.30;99.90
44170;DHT22;29836;52.286;9.576;2022-11-15T13:54:24;13.30;99.90
44170;DHT22;29836;52.286;9.576;2022-11-15T13:56:58;13.30;99.90
44170;DHT22;29836;52.286;9.576;2022-11-15T13:59:25;13.20;99.90
44170;DHT22;29836;52.286;9.576;2022-11-15T14:01:53;13.20;99.90
44170;DHT22;29836;52.286;9.576;2022-11-15T14:04:22;13.10;99.90
44170;DHT22;29836;52.286;9.576;2022-11-15T14:06:52;13.10;99.90
44170;DHT22;29836;52.286;9.576;2022-11-15T14:12:02;13.00;99.90
44170;DHT22;29836;52.286;9.576;2022-11-15T14:14:46;12.90;99.90
44170;DHT22;29836;52.286;9.576;2022-11-15T14:19:56;12.70;99.90
44170;DHT22;29836;52.286;9.576;2022-11-15T14:22:29;12.60;99.90
44170;DHT22;29836;52.286;9.576;2022-11-15T14:27:40;12.70;99.90
44170;DHT22;29836;52.286;9.576;2022-11-15T14:30:07;12.80;99.90
44170;DHT22;29836;52.286;9.576;2022-11-15T14:32:57;12.80;99.90
44170;DHT22;29836;52.286;9.576;2022-11-15T14:35:23;12.80;99.90
44170;DHT22;29836;52.286;9.576;2022-11-15T14:37:49;12.60;99.90
44170;DHT22;29836;52.286;9.576;2022-11-15T14:40:19;12.50;99.90
44170;DHT22;29836;52.286;9.576;2022-11-15T14:42:46;12.40;99.90
44170;DHT22;29836;52.286;9.576;2022-11-15T14:45:22;12.30;99.90
44170;DHT22;29836;52.286;9.576;2022-11-15T14:47:48;12.20;99.90
44170;DHT22;29836;52.286;9.576;2022-11-15T14:50:14;12.10;99.90
44170;DHT22;29836;52.286;9.576;2022-11-15T14:52:40;12.10;99.90
44170;DHT22;29836;52.286;9.576;2022-11-15T14:55:23;12.10;99.90
44170;DHT22;29836;52.286;9.576;2022-11-15T14:57:49;12.00;99.90
44170;DHT22;29836;52.286;9.576;2022-11-15T15:00:16;12.00;99.90
44170;DHT22;29836;52.286;9.576;2022-11-15T15:02:43;12.00;99.90
44170;DHT22;29836;52.286;9.576;2022-11-15T15:05:21;12.00;99.90
44170;DHT22;29836;52.286;9.576;2022-11-15T15:07:48;11.90;99.90
44170;DHT22;29836;52.286;9.576;2022-11-15T15:10:14;11.90;99.90
44170;DHT22;29836;52.286;9.576;2022-11-15T15:12:40;11.90;99.90
44170;DHT22;29836;52.286;9.576;2022-11-15T15:15:13;12.00;99.90
44170;DHT22;29836;52.286;9.576;2022-11-15T15:17:39;12.10;99.90
44170;DHT22;29836;52.286;9.576;2022-11-15T15:20:05;12.10;99.90
44170;DHT22;29836;52.286;9.576;2022-11-15T15:22:31;12.10;99.90
44170;DHT22;29836;52.286;9.576;2022-11-15T15:24:56;12.10;99.90
44170;DHT22;29836;52.286;9.576;2022-11-15T15:27:22;12.00;99.90
44170;DHT22;29836;52.286;9.576;2022-11-15T15:29:48;11.90;99.90
44170;DHT22;29836;52.286;9.576;2022-11-15T15:32:13;11.90;99.90
44170;DHT22;29836;52.286;9.576;2022-11-15T15:34:39;12.00;99.90
44170;DHT22;29836;52.286;9.576;2022-11-15T15:37:23;12.00;99.90
44170;DHT22;29836;52.286;9.576;2022-11-15T15:39:51;11.90;99.90
44170;DHT22;29836;52.286;9.576;2022-11-15T15:42:17;11.90;99.90
44170;DHT22;29836;52.286;9.576;2022-11-15T15:44:42;11.90;99.90
44170;DHT22;29836;52.286;9.576;2022-11-15T15:47:15;11.90;99.90
44170;DHT22;29836;52.286;9.576;2022-11-15T15:49:41;11.80;99.90
44170;DHT22;29836;52.286;9.576;2022-11-15T15:52:07;11.80;99.90
44170;DHT22;29836;52.286;9.576;2022-11-15T15:54:32;11.80;99.90
44170;DHT22;29836;52.286;9.576;2022-11-15T15:56:58;11.80;99.90
44170;DHT22;29836;52.286;9.576;2022-11-15T15:59:24;11.80;99.90
44170;DHT22;29836;52.286;9.576;2022-11-15T16:01:49;11.80;99.90
44170;DHT22;29836;52.286;9.576;2022-11-15T16:04:15;11.70;99.90
44170;DHT22;29836;52.286;9.576;2022-11-15T16:06:41;11.70;99.90
44170;DHT22;29836;52.286;9.576;2022-11-15T16:09:17;11.60;99.90
44170;DHT22;29836;52.286;9.576;2022-11-15T16:11:45;11.50;99.90
44170;DHT22;29836;52.286;9.576;2022-11-15T16:14:11;11.50;99.90
44170;DHT22;29836;52.286;9.576;2022-11-15T16:16:37;11.50;99.90
44170;DHT22;29836;52.286;9.576;2022-11-15T16:19:03;11.40;99.90
44170;DHT22;29836;52.286;9.576;2022-11-15T16:21:29;11.40;99.90
44170;DHT22;29836;52.286;9.576;2022-11-15T16:23:55;11.20;99.90
44170;DHT22;29836;52.286;9.576;2022-11-15T16:26:22;11.20;99.90
44170;DHT22;29836;52.286;9.576;2022-11-15T16:28:49;11.10;99.90
44170;DHT22;29836;52.286;9.576;2022-11-15T16:31:14;11.10;99.90
44170;DHT22;29836;52.286;9.576;2022-11-15T16:33:43;10.90;99.90
44170;DHT22;29836;52.286;9.576;2022-11-15T16:36:22;10.70;99.90
44170;DHT22;29836;52.286;9.576;2022-11-15T16:38:48;10.50;99.90
44170;DHT22;29836;52.286;9.576;2022-11-15T16:41:14;10.30;99.90
44170;DHT22;29836;52.286;9.576;2022-11-15T16:43:42;10.20;99.90
44170;DHT22;29836;52.286;9.576;2022-11-15T16:46:20;10.00;99.90
44170;DHT22;29836;52.286;9.576;2022-11-15T16:48:46;9.90;99.90
44170;DHT22;29836;52.286;9.576;2022-11-15T16:51:12;9.70;99.90
44170;DHT22;29836;52.286;9.576;2022-11-15T16:53:38;9.60;99.90
44170;DHT22;29836;52.286;9.576;2022-11-15T16:56:25;9.60;99.90
44170;DHT22;29836;52.286;9.576;2022-11-15T16:58:52;9.70;99.90
44170;DHT22;29836;52.286;9.576;2022-11-15T17:01:26;9.80;99.90
44170;DHT22;29836;52.286;9.576;2022-11-15T17:03:52;9.70;99.90
44170;DHT22;29836;52.286;9.576;2022-11-15T17:06:18;9.60;99.90
44170;DHT22;29836;52.286;9.576;2022-11-15T17:08:44;9.60;99.90
44170;DHT22;29836;52.286;9.576;2022-11-15T17:11:15;9.70;99.90
44170;DHT22;29836;52.286;9.576;2022-11-15T17:13:41;9.60;99.90
44170;DHT22;29836;52.286;9.576;2022-11-15T17:16:10;9.60;99.90
44170;DHT22;29836;52.286;9.576;2022-11-15T17:18:36;9.60;99.90
44170;DHT22;29836;52.286;9.576;2022-11-15T17:21:10;9.50;99.90
44170;DHT22;29836;52.286;9.576;2022-11-15T17:23:37;9.50;99.90
44170;DHT22;29836;52.286;9.576;2022-11-15T17:26:03;9.60;99.90
44170;DHT22;29836;52.286;9.576;2022-11-15T17:28:31;9.70;99.90
44170;DHT22;29836;52.286;9.576;2022-11-15T17:30:57;9.80;99.90
44170;DHT22;29836;52.286;9.576;2022-11-15T17:33:23;9.90;99.90
44170;DHT22;29836;52.286;9.576;2022-11-15T17:35:59;9.90;99.90
44170;DHT22;29836;52.286;9.576;2022-11-15T17:38:26;10.00;99.90
44170;DHT22;29836;52.286;9.576;2022-11-15T17:41:01;10.10;99.90
44170;DHT22;29836;52.286;9.576;2022-11-15T17:43:29;10.20;99.90
44170;DHT22;29836;52.286;9.576;2022-11-15T17:45:55;10.10;99.90
44170;DHT22;29836;52.286;9.576;2022-11-15T17:48:20;9.90;99.90
44170;DHT22;29836;52.286;9.576;2022-11-15T17:50:57;9.70;99.90
44170;DHT22;29836;52.286;9.576;2022-11-15T17:53:23;9.80;99.90
44170;DHT22;29836;52.286;9.576;2022-11-15T17:55:49;9.70;99.90
44170;DHT22;29836;52.286;9.576;2022-11-15T17:58:15;9.80;99.90
44170;DHT22;29836;52.286;9.576;2022-11-15T18:00:44;9.70;99.90
44170;DHT22;29836;52.286;9.576;2022-11-15T18:03:10;9.60;99.90
44170;DHT22;29836;52.286;9.576;2022-11-15T18:05:35;9.60;99.90
44170;DHT22;29836;52.286;9.576;2022-11-15T18:08:01;9.50;99.90
44170;DHT22;29836;52.286;9.576;2022-11-15T18:10:26;9.50;99.90
44170;DHT22;29836;52.286;9.576;2022-11-15T18:12:52;9.50;99.90
44170;DHT22;29836;52.286;9.576;2022-11-15T18:15:17;9.50;99.90
44170;DHT22;29836;52.286;9.576;2022-11-15T18:17:45;9.50;99.90
44170;DHT22;29836;52.286;9.576;2022-11-15T18:20:10;9.50;99.90
44170;DHT22;29836;52.286;9.576;2022-11-15T18:22:36;9.50;99.90